Current Weather

Decatur Muni

Decatur, Texas (KLUD)

Report from: Sunday, February 25, 2024 9:15 PM UTC
Current time: Sunday, February 25, 2024 9:38 PM UTC

Nearby weather – Weather history – Daily summaries
Weather forecast

Temperature28.6°C (83.5°F)
Heat index27.2°C (81.0°F)
Dew point1.7°C (35.1°F)
Winds 13 kts (6.7 m/s, 15 mph) West-Southwest (250°)
Wind gusts 17 kts (8.7 m/s, 19.6 mph)
Visibility10 mi. (16.1 km)
Clouds Sky clear
Altimeter29.84 in.Hg (1010 mB)
Relative humidity18 %
Density altitude1,763 ft. (537 m)
Remarks Fully automated report
Automated weather observing station with precipitation discriminator
Flight conditions Visual Meteorological Conditions
Raw dataKLUD 252115Z AUTO 25013G17KT 10SM CLR 29/02 A2984 RMK AO2 T02860017
An error has occurred. This application may no longer respond until reloaded. Reload 🗙